Time;durP1;ratioP1;P1;durP2;ratioP2;P2;SDS_P1;SDS_P2;PMS_P1;PMS_P2;Temp;Humidity;BMP_temperature;BMP_pressure;BME280_temperature;BME280_humidity;BME280_pressure;Samples;Min_cycle;Max_cycle;Signal;HPM_P1;HPM_P2
2023/12/29 00:00:56;;;;;;;2.72;2.13;;;10.60;99.90;;;;;;5040984;28;20025;-73
2023/12/29 00:03:21;;;;;;;4.95;2.25;;;10.60;99.90;;;;;;5024351;28;20021;-72
2023/12/29 00:05:47;;;;;;;3.70;1.50;;;10.60;99.90;;;;;;5004657;28;20029;-72
2023/12/29 00:08:13;;;;;;;4.78;2.08;;;10.60;99.90;;;;;;5040961;28;20103;-72
2023/12/29 00:10:39;;;;;;;6.90;1.65;;;10.60;99.90;;;;;;5007008;28;20108;-72
2023/12/29 00:13:08;;;;;;;2.65;2.38;;;10.60;99.90;;;;;;5009391;28;20044;-71
2023/12/29 00:15:33;;;;;;;4.18;1.75;;;10.60;99.90;;;;;;5042599;28;20303;-72
2023/12/29 00:17:59;;;;;;;3.63;2.00;;;10.60;99.90;;;;;;5009797;28;20036;-71
2023/12/29 00:20:25;;;;;;;7.18;1.80;;;10.60;99.90;;;;;;5043787;28;20217;-71
2023/12/29 00:22:51;;;;;;;2.50;1.33;;;10.60;99.90;;;;;;5009379;28;20101;-71
2023/12/29 00:25:16;;;;;;;5.13;2.17;;;10.60;99.90;;;;;;5041254;28;20044;-72
2023/12/29 00:27:42;;;;;;;7.60;2.45;;;10.60;99.90;;;;;;5025903;28;20025;-71
2023/12/29 00:30:09;;;;;;;6.78;1.60;;;10.60;99.90;;;;;;5025285;28;20040;-71
2023/12/29 00:32:35;;;;;;;2.08;1.77;;;10.60;99.90;;;;;;5042575;28;20021;-71
2023/12/29 00:35:01;;;;;;;2.00;1.50;;;10.60;99.90;;;;;;5042609;28;20029;-71
2023/12/29 00:37:27;;;;;;;7.25;1.40;;;10.60;99.90;;;;;;5009704;28;20357;-72
2023/12/29 00:39:53;;;;;;;4.78;3.63;;;10.60;99.90;;;;;;5025572;28;20025;-73
2023/12/29 00:42:22;;;;;;;11.48;1.92;;;10.60;99.90;;;;;;5025750;28;20029;-72
2023/12/29 00:44:48;;;;;;;5.65;1.88;;;10.50;99.90;;;;;;5024432;28;20025;-72
2023/12/29 00:47:14;;;;;;;12.30;3.05;;;10.60;99.90;;;;;;5025645;28;20124;-71
2023/12/29 00:49:41;;;;;;;3.83;2.65;;;;;;;;;;5043093;28;20100;-72
2023/12/29 00:52:07;;;;;;;6.10;1.63;;;10.60;99.90;;;;;;5042099;28;20025;-72
2023/12/29 00:54:34;;;;;;;11.82;2.05;;;10.60;99.90;;;;;;5008117;28;20044;-71
2023/12/29 00:56:59;;;;;;;11.30;3.53;;;10.50;99.90;;;;;;5025834;28;20021;-71
2023/12/29 00:59:27;;;;;;;6.10;2.05;;;10.50;99.90;;;;;;5038526;28;20124;-72
2023/12/29 01:01:52;;;;;;;3.45;1.88;;;10.60;99.90;;;;;;5022674;28;20029;-71
2023/12/29 01:04:18;;;;;;;2.67;0.85;;;10.60;99.90;;;;;;5023682;28;20107;-71
2023/12/29 01:06:44;;;;;;;6.30;1.70;;;10.60;99.90;;;;;;5038719;28;20196;-72
2023/12/29 01:09:11;;;;;;;8.00;2.45;;;10.50;99.90;;;;;;5041612;28;20033;-71
2023/12/29 01:11:37;;;;;;;5.05;2.50;;;10.50;99.90;;;;;;5042941;28;20088;-71
2023/12/29 01:14:03;;;;;;;10.23;1.85;;;10.50;99.90;;;;;;5040227;28;20098;-72
2023/12/29 01:16:29;;;;;;;3.38;1.73;;;10.40;99.90;;;;;;5041755;28;20019;-71
2023/12/29 01:18:54;;;;;;;5.63;1.88;;;10.30;99.90;;;;;;5025182;28;20030;-71
2023/12/29 01:21:21;;;;;;;4.03;1.42;;;10.10;99.90;;;;;;5015085;28;20340;-72
2023/12/29 01:23:47;;;;;;;7.80;1.70;;;10.10;99.90;;;;;;5038589;28;20022;-71
2023/12/29 01:26:12;;;;;;;15.52;2.63;;;10.00;99.90;;;;;;5025358;28;20029;-71
2023/12/29 01:28:38;;;;;;;3.00;2.60;;;10.00;99.90;;;;;;5041096;28;20005;-72
2023/12/29 01:31:05;;;;;;;4.85;2.17;;;9.90;99.90;;;;;;5025074;28;20022;-71
2023/12/29 01:33:30;;;;;;;7.25;2.30;;;9.90;99.90;;;;;;5008566;28;20281;-72
2023/12/29 01:35:56;;;;;;;7.00;2.33;;;9.70;99.90;;;;;;5041573;28;20026;-71
2023/12/29 01:38:23;;;;;;;6.28;1.98;;;9.60;99.90;;;;;;5024960;28;20041;-71
2023/12/29 01:40:49;;;;;;;5.90;2.30;;;9.50;99.90;;;;;;5009016;28;20226;-71
2023/12/29 01:43:15;;;;;;;9.07;3.20;;;9.40;99.90;;;;;;5028682;28;20092;-72
2023/12/29 01:45:41;;;;;;;2.35;1.98;;;9.30;99.90;;;;;;5045236;28;20044;-72
2023/12/29 01:48:09;;;;;;;4.78;4.05;;;9.20;99.90;;;;;;5012499;28;20041;-72
2023/12/29 01:50:35;;;;;;;5.15;2.90;;;9.20;99.90;;;;;;5029458;28;20287;-72
2023/12/29 01:53:03;;;;;;;2.67;1.98;;;9.30;99.90;;;;;;5009302;28;20222;-71
2023/12/29 01:55:29;;;;;;;7.38;3.20;;;9.30;99.90;;;;;;5023091;28;20065;-71
2023/12/29 01:57:56;;;;;;;5.10;1.80;;;9.40;99.90;;;;;;5029020;28;20009;-72
2023/12/29 02:00:22;;;;;;;4.00;3.63;;;9.50;99.90;;;;;;5028702;28;20018;-71
2023/12/29 02:02:48;;;;;;;11.32;3.88;;;9.50;99.90;;;;;;5045116;28;20085;-72
2023/12/29 02:05:16;;;;;;;3.95;2.30;;;9.60;99.90;;;;;;5038592;28;20033;-71
2023/12/29 02:07:42;;;;;;;7.88;2.60;;;9.60;99.90;;;;;;5012200;28;20074;-71
2023/12/29 02:10:13;;;;;;;4.50;1.60;;;9.70;99.90;;;;;;5028699;28;20096;-71
2023/12/29 02:12:40;;;;;;;4.10;2.30;;;9.80;99.90;;;;;;5011836;28;20318;-71
2023/12/29 02:15:07;;;;;;;3.67;1.85;;;9.90;99.90;;;;;;5044775;28;20033;-71
2023/12/29 02:17:40;;;;;;;10.85;2.63;;;9.90;99.90;;;;;;5011913;28;20029;-72
2023/12/29 02:20:08;;;;;;;12.88;3.95;;;10.00;99.90;;;;;;5028313;28;20035;-71
2023/12/29 02:22:33;;;;;;;6.53;3.13;;;10.00;99.90;;;;;;5028181;28;20080;-71
2023/12/29 02:24:59;;;;;;;2.67;2.47;;;10.00;99.90;;;;;;5010480;28;20033;-72
2023/12/29 02:27:42;;;;;;;4.90;2.35;;;10.10;99.90;;;;;;5028171;28;20033;-71
2023/12/29 02:30:30;;;;;;;9.40;3.08;;;10.10;99.90;;;;;;5028231;28;20028;-71
2023/12/29 02:33:02;;;;;;;2.88;2.15;;;10.20;99.90;;;;;;5011325;28;20021;-71
2023/12/29 02:35:32;;;;;;;2.10;1.90;;;10.20;99.90;;;;;;5026920;28;20029;-71
2023/12/29 02:37:58;;;;;;;5.00;2.50;;;10.20;99.90;;;;;;5012079;28;20033;-71
2023/12/29 02:40:26;;;;;;;12.73;3.38;;;10.20;99.90;;;;;;5045946;28;20100;-71
2023/12/29 02:42:51;;;;;;;9.40;3.00;;;10.20;99.90;;;;;;5027917;28;20092;-71
2023/12/29 02:45:18;;;;;;;8.88;3.65;;;10.20;99.90;;;;;;5026469;28;20196;-72
2023/12/29 02:47:44;;;;;;;9.18;2.20;;;10.20;99.90;;;;;;5011507;28;20064;-71
2023/12/29 02:50:11;;;;;;;6.68;2.55;;;10.20;99.90;;;;;;5045427;28;20057;-72
2023/12/29 02:52:37;;;;;;;5.05;2.10;;;10.20;99.90;;;;;;5027346;28;20040;-72
2023/12/29 02:55:03;;;;;;;7.88;1.58;;;10.20;99.90;;;;;;5010071;28;20057;-71
2023/12/29 02:57:30;;;;;;;4.43;1.60;;;10.30;99.90;;;;;;5044556;28;20029;-70
2023/12/29 02:59:56;;;;;;;5.60;2.55;;;10.30;99.90;;;;;;5044336;28;20192;-71
2023/12/29 03:02:23;;;;;;;16.65;2.83;;;10.30;99.90;;;;;;5044195;28;20128;-72
2023/12/29 03:04:49;;;;;;;8.98;2.97;;;10.30;99.90;;;;;;5026521;28;20251;-72
2023/12/29 03:07:16;;;;;;;4.40;1.75;;;10.20;99.90;;;;;;5028455;28;20037;-71
2023/12/29 03:09:43;;;;;;;5.45;1.77;;;10.30;99.90;;;;;;5028294;28;20025;-71
2023/12/29 03:12:09;;;;;;;4.22;2.25;;;10.30;99.90;;;;;;5045451;28;20303;-71
2023/12/29 03:14:35;;;;;;;17.08;3.03;;;10.30;99.90;;;;;;5040910;28;20041;-71
2023/12/29 03:17:04;;;;;;;2.22;2.05;;;10.30;99.90;;;;;;5012648;28;20022;-72
2023/12/29 03:19:29;;;;;;;2.80;2.35;;;10.20;99.90;;;;;;5027488;28;20025;-72
2023/12/29 03:21:55;;;;;;;4.07;2.53;;;10.20;99.90;;;;;;5027567;28;20338;-71
2023/12/29 03:24:21;;;;;;;3.30;2.28;;;10.20;99.90;;;;;;5010272;28;20020;-71
2023/12/29 03:26:48;;;;;;;12.23;2.58;;;10.20;99.90;;;;;;5027170;28;20033;-72
2023/12/29 03:29:14;;;;;;;9.05;1.98;;;10.20;99.90;;;;;;4994405;28;20022;-71
2023/12/29 03:31:40;;;;;;;9.05;2.90;;;10.20;99.90;;;;;;5029189;28;20105;-71
2023/12/29 03:34:05;;;;;;;6.68;2.47;;;10.20;99.90;;;;;;5008878;28;20033;-71
2023/12/29 03:36:32;;;;;;;8.10;1.95;;;10.20;99.90;;;;;;5010773;28;20029;-71
2023/12/29 03:38:59;;;;;;;4.88;3.22;;;10.30;99.90;;;;;;5044763;28;20017;-72
2023/12/29 03:41:24;;;;;;;2.55;1.30;;;10.20;99.90;;;;;;5010850;28;20021;-71
2023/12/29 03:43:50;;;;;;;4.75;2.38;;;10.20;99.90;;;;;;5009151;28;20020;-71
2023/12/29 03:46:21;;;;;;;8.60;3.15;;;10.20;99.90;;;;;;5026688;28;20032;-72
2023/12/29 03:48:48;;;;;;;7.65;2.85;;;10.20;99.90;;;;;;5044322;28;20037;-71
2023/12/29 03:51:18;;;;;;;2.78;1.50;;;10.20;99.90;;;;;;5027037;28;20021;-71
2023/12/29 03:53:44;;;;;;;2.67;2.45;;;10.20;99.90;;;;;;5025201;28;20071;-72
2023/12/29 03:56:16;;;;;;;3.55;2.47;;;10.20;99.90;;;;;;5026592;28;20021;-71
2023/12/29 03:58:42;;;;;;;3.15;2.15;;;10.20;99.90;;;;;;5035401;28;20032;-72
2023/12/29 04:01:13;;;;;;;3.70;2.03;;;10.20;99.90;;;;;;5023326;28;20329;-71
2023/12/29 04:03:39;;;;;;;9.50;3.25;;;10.20;99.90;;;;;;5021991;28;20097;-73
2023/12/29 04:06:06;;;;;;;3.30;2.15;;;10.20;99.90;;;;;;5026533;28;20105;-71
2023/12/29 04:08:33;;;;;;;4.47;2.05;;;10.20;99.90;;;;;;5009825;28;20040;-71
2023/12/29 04:10:59;;;;;;;9.00;2.15;;;10.20;99.90;;;;;;5026174;28;20013;-72
2023/12/29 04:13:25;;;;;;;5.68;2.13;;;10.30;99.90;;;;;;5026125;28;20041;-71
2023/12/29 04:15:51;;;;;;;8.18;2.65;;;10.30;99.90;;;;;;5024854;28;20014;-72
2023/12/29 04:18:19;;;;;;;3.33;2.55;;;10.20;99.90;;;;;;5025615;28;20045;-72
2023/12/29 04:20:45;;;;;;;6.30;2.42;;;10.20;99.90;;;;;;5026158;28;20096;-71
2023/12/29 04:23:12;;;;;;;3.25;2.35;;;10.30;99.90;;;;;;5043791;28;20097;-71
2023/12/29 04:25:38;;;;;;;4.60;2.15;;;10.20;99.90;;;;;;5024531;28;20044;-71
2023/12/29 04:28:07;;;;;;;13.80;2.22;;;10.40;99.90;;;;;;5009416;28;20092;-71
2023/12/29 04:30:33;;;;;;;8.98;1.80;;;10.40;99.90;;;;;;5009079;28;20044;-71
2023/12/29 04:32:59;;;;;;;5.22;1.33;;;10.40;99.90;;;;;;5043854;28;20040;-71
2023/12/29 04:35:28;;;;;;;6.28;2.05;;;10.40;99.90;;;;;;5040759;28;20302;-71
2023/12/29 04:37:54;;;;;;;8.15;3.13;;;10.40;99.90;;;;;;5009547;28;20095;-71
2023/12/29 04:40:20;;;;;;;11.00;2.00;;;10.40;99.90;;;;;;5043651;28;20025;-71
2023/12/29 04:42:45;;;;;;;4.03;1.60;;;10.40;99.90;;;;;;5043491;28;20029;-72
2023/12/29 04:45:12;;;;;;;6.60;2.15;;;10.40;99.90;;;;;;5007770;28;20014;-72
2023/12/29 04:47:38;;;;;;;11.75;3.03;;;10.40;99.90;;;;;;5042906;28;20033;-71
2023/12/29 04:50:05;;;;;;;11.98;2.15;;;10.40;99.90;;;;;;5025563;28;20084;-71
2023/12/29 04:52:31;;;;;;;5.93;2.17;;;10.50;99.90;;;;;;5025889;28;20029;-71
2023/12/29 04:54:57;;;;;;;8.25;2.30;;;;;;;;;;5024191;28;20226;-71
2023/12/29 04:57:26;;;;;;;9.85;1.38;;;10.40;99.90;;;;;;5043012;28;20089;-71
2023/12/29 04:59:52;;;;;;;2.05;1.90;;;10.40;99.90;;;;;;5042313;28;20319;-72
2023/12/29 05:02:19;;;;;;;7.90;2.20;;;10.40;99.90;;;;;;5043014;28;20052;-71
2023/12/29 05:04:46;;;;;;;8.80;1.90;;;10.40;99.90;;;;;;5041633;28;20017;-72
2023/12/29 05:07:12;;;;;;;7.18;3.13;;;10.40;99.90;;;;;;5009233;28;20026;-71
2023/12/29 05:09:38;;;;;;;4.78;1.95;;;10.40;99.90;;;;;;5042547;28;20018;-72
2023/12/29 05:12:04;;;;;;;7.32;3.22;;;10.50;99.90;;;;;;5042961;28;20044;-72
2023/12/29 05:14:30;;;;;;;4.35;1.95;;;10.40;99.90;;;;;;5041616;28;20033;-71
2023/12/29 05:16:56;;;;;;;6.38;1.45;;;10.50;99.90;;;;;;5025123;28;20034;-72
2023/12/29 05:19:21;;;;;;;7.55;2.38;;;10.40;99.90;;;;;;5025069;28;20052;-72
2023/12/29 05:21:50;;;;;;;6.28;2.13;;;10.40;99.90;;;;;;5042672;28;20120;-71
2023/12/29 05:24:16;;;;;;;5.85;2.60;;;10.40;99.90;;;;;;5040519;28;20230;-73
2023/12/29 05:26:42;;;;;;;7.85;2.20;;;10.40;99.90;;;;;;5025441;28;20018;-71
2023/12/29 05:29:08;;;;;;;4.75;1.92;;;10.40;99.90;;;;;;5042469;28;20033;-73
2023/12/29 05:31:34;;;;;;;9.25;2.70;;;10.30;99.90;;;;;;5005024;28;20049;-72
2023/12/29 05:34:00;;;;;;;2.60;2.15;;;10.30;99.90;;;;;;5025236;28;20049;-72
2023/12/29 05:36:26;;;;;;;2.33;1.65;;;10.20;99.90;;;;;;5042764;28;20025;-74
2023/12/29 05:38:52;;;;;;;3.80;2.10;;;10.20;99.90;;;;;;5042856;28;20029;-71
2023/12/29 05:41:19;;;;;;;5.63;2.30;;;10.20;99.90;;;;;;5024857;28;20032;-72
2023/12/29 05:43:44;;;;;;;11.35;3.38;;;10.30;99.90;;;;;;5020513;28;20088;-72
2023/12/29 05:46:14;;;;;;;5.90;2.15;;;10.30;99.90;;;;;;5005230;28;20026;-72
2023/12/29 05:48:40;;;;;;;3.83;1.63;;;10.30;99.90;;;;;;5031091;28;20033;-72
2023/12/29 05:51:11;;;;;;;5.25;2.42;;;10.30;99.90;;;;;;5040490;28;20037;-71
2023/12/29 05:53:39;;;;;;;3.40;1.58;;;10.30;99.90;;;;;;5024530;28;20037;-72
2023/12/29 05:56:05;;;;;;;2.88;1.85;;;10.40;99.90;;;;;;5040033;28;20017;-72
2023/12/29 05:58:31;;;;;;;14.07;3.03;;;10.40;99.90;;;;;;5021095;28;20214;-72
2023/12/29 06:01:00;;;;;;;3.40;2.10;;;10.30;99.90;;;;;;5040793;28;20210;-73
2023/12/29 06:03:26;;;;;;;2.20;1.27;;;10.30;99.90;;;;;;5028586;28;20319;-72
2023/12/29 06:05:52;;;;;;;4.60;2.38;;;10.30;99.90;;;;;;5006278;28;20025;-73
2023/12/29 06:08:18;;;;;;;10.25;3.15;;;10.30;99.90;;;;;;5042105;28;20034;-71
2023/12/29 06:10:45;;;;;;;7.13;1.65;;;10.30;99.90;;;;;;5039706;28;20017;-72
2023/12/29 06:13:11;;;;;;;7.93;2.08;;;10.20;99.90;;;;;;5024023;28;20224;-71
2023/12/29 06:15:36;;;;;;;3.42;1.88;;;10.20;99.90;;;;;;5038853;28;20013;-73
2023/12/29 06:18:03;;;;;;;5.93;2.25;;;10.10;99.90;;;;;;5033226;28;20028;-71
2023/12/29 06:20:29;;;;;;;11.07;2.63;;;10.00;99.90;;;;;;5028217;28;20021;-72
2023/12/29 06:22:55;;;;;;;14.98;3.85;;;10.00;99.90;;;;;;5021282;28;20129;-73
2023/12/29 06:25:22;;;;;;;6.60;2.28;;;9.80;99.90;;;;;;5005543;28;20269;-76
2023/12/29 06:27:48;;;;;;;3.60;1.65;;;9.70;99.90;;;;;;5009678;28;20083;-74
2023/12/29 06:30:14;;;;;;;6.57;2.22;;;9.40;99.90;;;;;;5027589;28;20023;-74
2023/12/29 06:32:41;;;;;;;8.80;2.38;;;9.50;99.90;;;;;;5044160;28;20275;-74
2023/12/29 06:35:09;;;;;;;10.38;2.95;;;9.30;99.90;;;;;;5009707;28;20025;-74
2023/12/29 06:37:39;;;;;;;4.63;2.40;;;9.20;99.90;;;;;;5008268;28;20030;-73
2023/12/29 06:40:09;;;;;;;;;;;9.10;99.90;;;;;;5037820;28;20026;-75
2023/12/29 06:42:34;;;;;;;9.98;3.53;;;9.10;99.90;;;;;;5043744;28;19901;-74
2023/12/29 06:45:01;;;;;;;6.30;2.45;;;9.10;99.90;;;;;;5043548;28;20021;-74
2023/12/29 06:47:27;;;;;;;8.65;2.35;;;9.10;99.90;;;;;;5027472;28;20017;-74
2023/12/29 06:49:53;;;;;;;5.80;2.88;;;9.10;99.90;;;;;;5027625;28;20045;-74
2023/12/29 06:52:19;;;;;;;8.38;4.55;;;9.10;99.90;;;;;;5043867;28;20021;-74
2023/12/29 06:54:46;;;;;;;9.35;3.05;;;9.10;99.90;;;;;;5022137;28;20042;-74
2023/12/29 06:57:14;;;;;;;10.35;3.10;;;9.10;99.90;;;;;;4983562;28;20047;-74
2023/12/29 06:59:40;;;;;;;4.88;2.85;;;9.10;99.90;;;;;;5044008;28;20128;-74
2023/12/29 07:02:06;;;;;;;8.23;3.08;;;9.10;99.90;;;;;;5027133;28;20032;-74
2023/12/29 07:04:32;;;;;;;7.28;4.20;;;9.10;99.90;;;;;;5030696;28;20296;-74
2023/12/29 07:07:03;;;;;;;21.77;9.85;;;9.10;99.90;;;;;;5021209;28;20029;-74
2023/12/29 07:09:29;;;;;;;31.77;17.02;;;9.10;99.90;;;;;;5043018;28;20018;-74
2023/12/29 07:11:55;;;;;;;28.27;17.52;;;9.10;99.90;;;;;;5027025;28;20024;-73
2023/12/29 07:14:21;;;;;;;15.45;4.72;;;9.20;99.90;;;;;;5002653;28;20129;-74
2023/12/29 07:16:47;;;;;;;12.48;4.38;;;9.10;99.90;;;;;;5036475;28;20032;-74
2023/12/29 07:19:13;;;;;;;7.65;2.97;;;9.10;99.90;;;;;;5027215;28;20128;-75
2023/12/29 07:21:38;;;;;;;12.15;4.60;;;9.10;99.90;;;;;;5043488;28;20017;-74
2023/12/29 07:24:05;;;;;;;6.90;2.78;;;9.10;99.90;;;;;;5007305;28;20021;-75
2023/12/29 07:26:34;;;;;;;18.75;3.30;;;9.10;99.90;;;;;;5041369;28;20029;-74
2023/12/29 07:28:59;;;;;;;13.32;3.50;;;9.10;99.90;;;;;;5006506;28;20299;-73
2023/12/29 07:31:26;;;;;;;5.95;2.95;;;9.10;99.90;;;;;;5008267;28;20067;-74
2023/12/29 07:33:52;;;;;;;11.80;4.32;;;9.10;99.90;;;;;;5017386;28;20045;-77
2023/12/29 07:36:17;;;;;;;7.90;4.13;;;9.20;99.90;;;;;;5024135;28;20317;-74
2023/12/29 07:38:44;;;;;;;9.95;2.85;;;9.10;99.90;;;;;;5026594;28;20029;-74
2023/12/29 07:41:10;;;;;;;8.25;4.43;;;9.20;99.90;;;;;;5026715;28;20047;-74
2023/12/29 07:43:35;;;;;;;6.82;3.00;;;9.20;99.90;;;;;;5042979;28;20040;-74
2023/12/29 07:46:02;;;;;;;3.38;1.77;;;9.20;99.90;;;;;;5035532;28;20241;-74
2023/12/29 07:48:28;;;;;;;6.53;2.35;;;9.20;99.90;;;;;;5026273;28;20044;-74
2023/12/29 07:50:56;;;;;;;3.60;1.90;;;9.10;99.90;;;;;;5043884;28;20017;-74
2023/12/29 07:53:22;;;;;;;6.90;4.28;;;9.10;99.90;;;;;;5025685;28;20045;-76
2023/12/29 07:55:50;;;;;;;13.43;4.32;;;9.20;99.90;;;;;;5031495;28;20020;-77
2023/12/29 07:58:15;;;;;;;4.47;2.47;;;9.20;99.90;;;;;;5037777;28;20033;-76
2023/12/29 08:00:41;;;;;;;4.60;3.35;;;9.20;99.90;;;;;;5043264;28;20125;-72
2023/12/29 08:03:07;;;;;;;5.00;2.35;;;9.20;99.90;;;;;;5026496;28;20033;-73
2023/12/29 08:05:33;;;;;;;8.27;2.45;;;9.20;99.90;;;;;;5040614;28;20052;-73
2023/12/29 08:07:59;;;;;;;3.08;1.35;;;9.20;99.90;;;;;;5009803;28;20017;-71
2023/12/29 08:10:25;;;;;;;1.77;1.65;;;9.20;99.90;;;;;;5042684;28;20009;-73
2023/12/29 08:12:52;;;;;;;8.00;1.50;;;9.20;99.90;;;;;;5026067;28;20370;-71
2023/12/29 08:15:17;;;;;;;3.78;2.25;;;9.20;99.90;;;;;;5013989;28;20089;-72
2023/12/29 08:17:43;;;;;;;4.10;2.30;;;9.40;99.90;;;;;;5007170;28;20029;-73
2023/12/29 08:20:10;;;;;;;6.03;1.88;;;9.30;99.90;;;;;;4994788;28;20302;-73
2023/12/29 08:22:36;;;;;;;1.33;1.27;;;9.30;99.90;;;;;;5029213;28;20374;-73
2023/12/29 08:25:03;;;;;;;2.45;1.50;;;9.40;99.90;;;;;;5030823;28;20029;-72
2023/12/29 08:27:29;;;;;;;3.03;2.10;;;9.40;99.90;;;;;;5011347;28;20341;-72
2023/12/29 08:29:55;;;;;;;1.52;0.90;;;9.40;99.90;;;;;;5036770;28;20234;-72
2023/12/29 08:32:22;;;;;;;5.30;3.08;;;9.40;99.90;;;;;;4998175;28;20029;-72
2023/12/29 08:34:48;;;;;;;3.47;1.25;;;9.30;99.90;;;;;;5033755;28;20046;-73
2023/12/29 08:37:19;;;;;;;2.20;1.70;;;9.30;99.90;;;;;;5041904;28;20040;-72
2023/12/29 08:39:47;;;;;;;1.65;1.20;;;9.30;99.90;;;;;;5037350;28;20247;-72
2023/12/29 08:42:13;;;;;;;3.30;1.48;;;9.30;99.90;;;;;;5037346;28;20059;-72
2023/12/29 08:44:39;;;;;;;8.43;3.08;;;9.30;99.90;;;;;;5041269;28;20021;-72
2023/12/29 08:47:08;;;;;;;4.88;0.95;;;9.30;99.90;;;;;;5042648;28;20214;-72
2023/12/29 08:49:36;;;;;;;1.35;0.88;;;9.30;99.90;;;;;;5028881;28;20251;-72
2023/12/29 08:52:02;;;;;;;2.28;1.50;;;9.30;99.90;;;;;;4992319;28;20240;-73
2023/12/29 08:54:28;;;;;;;1.27;1.13;;;9.30;99.90;;;;;;5015055;28;20045;-72
2023/12/29 08:56:54;;;;;;;1.33;1.23;;;9.30;99.90;;;;;;5023847;28;20018;-73
2023/12/29 08:59:21;;;;;;;1.95;1.85;;;9.40;99.90;;;;;;5008263;28;20353;-73
2023/12/29 09:01:47;;;;;;;4.20;1.90;;;9.40;99.90;;;;;;5016175;28;20028;-73
2023/12/29 09:04:12;;;;;;;6.00;1.70;;;9.40;99.90;;;;;;5015100;28;20021;-72
2023/12/29 09:06:38;;;;;;;1.10;0.70;;;9.40;99.90;;;;;;5042647;28;20242;-72
2023/12/29 09:09:05;;;;;;;3.55;1.75;;;9.30;99.90;;;;;;5041310;28;20029;-73
2023/12/29 09:11:31;;;;;;;2.05;1.55;;;9.30;99.90;;;;;;5040674;28;20064;-73
2023/12/29 09:13:56;;;;;;;7.60;1.35;;;9.30;99.90;;;;;;5037767;28;20100;-73
2023/12/29 09:16:22;;;;;;;4.25;3.00;;;9.30;99.90;;;;;;5018878;28;20029;-71
2023/12/29 09:18:48;;;;;;;4.03;1.42;;;9.30;99.90;;;;;;5015391;28;20017;-72
2023/12/29 09:21:14;;;;;;;1.73;1.08;;;9.30;99.90;;;;;;5007375;28;20262;-76
2023/12/29 09:23:40;;;;;;;4.07;2.72;;;9.20;99.90;;;;;;5019584;28;20018;-74
2023/12/29 09:26:06;;;;;;;1.67;1.48;;;9.20;99.90;;;;;;5011523;28;20026;-73
2023/12/29 09:28:34;;;;;;;8.90;2.05;;;9.20;99.90;;;;;;5029979;28;20198;-73
2023/12/29 09:31:00;;;;;;;3.28;1.42;;;9.20;99.90;;;;;;5037134;28;20081;-73
2023/12/29 09:33:26;;;;;;;2.58;2.38;;;9.20;99.90;;;;;;5008008;28;20029;-73
2023/12/29 09:35:52;;;;;;;3.50;2.40;;;9.20;99.90;;;;;;5014365;28;20036;-72
2023/12/29 09:38:18;;;;;;;1.55;1.45;;;9.20;99.90;;;;;;5005516;28;20044;-74
2023/12/29 09:40:45;;;;;;;1.25;1.15;;;9.20;99.90;;;;;;5035777;28;20084;-74
2023/12/29 09:43:12;;;;;;;4.65;2.22;;;9.20;99.90;;;;;;5021757;28;20029;-75
2023/12/29 09:45:38;;;;;;;7.63;4.05;;;9.30;99.90;;;;;;5021195;28;20338;-74
2023/12/29 09:48:08;;;;;;;3.08;1.77;;;9.20;99.90;;;;;;4996886;28;20347;-74
2023/12/29 09:50:35;;;;;;;8.65;3.55;;;9.30;99.90;;;;;;5019012;28;20400;-72
2023/12/29 09:53:03;;;;;;;11.60;8.75;;;9.30;99.90;;;;;;5001603;28;20163;-74
2023/12/29 09:55:30;;;;;;;9.68;3.65;;;9.40;99.90;;;;;;5019322;28;20022;-72
2023/12/29 09:57:59;;;;;;;4.05;2.10;;;9.40;99.90;;;;;;5021806;28;20025;-72
2023/12/29 10:00:26;;;;;;;5.87;3.97;;;9.50;99.90;;;;;;5005370;28;20030;-72
2023/12/29 10:02:53;;;;;;;6.93;3.10;;;9.50;99.90;;;;;;5006693;28;20323;-72
2023/12/29 10:05:19;;;;;;;4.47;2.05;;;9.60;99.90;;;;;;5025758;28;20022;-72
2023/12/29 10:07:47;;;;;;;33.53;21.08;;;9.60;99.90;;;;;;5011056;28;20080;-72
2023/12/29 10:10:16;;;;;;;7.18;4.50;;;9.60;99.90;;;;;;5028174;28;20064;-72
2023/12/29 10:12:44;;;;;;;6.22;3.95;;;9.60;99.90;;;;;;5029119;28;20298;-72
2023/12/29 10:15:17;;;;;;;25.02;16.33;;;9.70;99.90;;;;;;5044071;28;20040;-73
2023/12/29 10:17:48;;;;;;;10.75;6.57;;;9.70;99.90;;;;;;5027560;28;20021;-72
2023/12/29 10:20:47;;;;;;;6.63;2.17;;;9.80;99.90;;;;;;5011893;28;20026;-72
2023/12/29 10:23:20;;;;;;;11.73;5.68;;;9.80;99.90;;;;;;5012364;28;20282;-71
2023/12/29 10:25:47;;;;;;;17.02;11.05;;;9.80;99.90;;;;;;5010401;28;20032;-72
2023/12/29 10:28:14;;;;;;;13.57;3.85;;;9.90;99.90;;;;;;5011749;28;20033;-72
2023/12/29 10:30:40;;;;;;;8.00;6.05;;;9.90;99.90;;;;;;5028496;28;20064;-72
2023/12/29 10:33:06;;;;;;;9.18;7.82;;;9.90;99.90;;;;;;5028285;28;20021;-72
2023/12/29 10:35:35;;;;;;;12.52;11.55;;;9.80;99.90;;;;;;5027266;28;20207;-72
2023/12/29 10:38:11;;;;;;;2.88;2.67;;;9.80;99.90;;;;;;5028113;28;20328;-71
2023/12/29 10:40:36;;;;;;;2.75;2.55;;;9.80;99.90;;;;;;5028287;28;20319;-71
2023/12/29 10:43:06;;;;;;;4.78;1.58;;;9.90;99.90;;;;;;5028220;28;20108;-71
2023/12/29 10:45:33;;;;;;;2.28;1.88;;;9.90;99.90;;;;;;5011195;28;20033;-71
2023/12/29 10:48:01;;;;;;;4.55;3.42;;;10.00;99.90;;;;;;5041784;28;20124;-73
2023/12/29 10:50:28;;;;;;;4.65;2.38;;;10.00;99.90;;;;;;5044585;28;20025;-72
2023/12/29 10:53:18;;;;;;;2.22;2.08;;;10.10;99.90;;;;;;5011698;28;20025;-71
2023/12/29 10:55:44;;;;;;;2.83;1.05;;;10.10;99.90;;;;;;5044544;28;20028;-72
2023/12/29 10:58:10;;;;;;;3.25;1.42;;;10.10;99.90;;;;;;5011570;28;20021;-72
2023/12/29 11:00:36;;;;;;;6.95;2.30;;;10.20;99.90;;;;;;5011371;28;20390;-71
2023/12/29 11:03:03;;;;;;;8.88;1.60;;;10.20;99.90;;;;;;5045410;28;20307;-71
2023/12/29 11:05:28;;;;;;;2.72;2.47;;;10.20;99.90;;;;;;5042964;28;20044;-71
2023/12/29 11:07:55;;;;;;;2.60;2.30;;;10.20;99.90;;;;;;5011171;28;20314;-72
2023/12/29 11:10:22;;;;;;;2.58;2.38;;;10.30;99.90;;;;;;5027267;28;20032;-71
2023/12/29 11:12:48;;;;;;;7.95;1.77;;;10.20;99.90;;;;;;5027326;28;20347;-72
2023/12/29 11:15:16;;;;;;;5.60;1.42;;;10.20;99.90;;;;;;5043761;28;20045;-72
2023/12/29 11:17:52;;;;;;;7.43;2.28;;;10.10;99.90;;;;;;5045235;28;20029;-71
2023/12/29 11:20:19;;;;;;;6.22;1.80;;;10.10;99.90;;;;;;5007775;28;20093;-72
2023/12/29 11:22:47;;;;;;;3.70;1.55;;;10.10;99.90;;;;;;5043589;28;20366;-71
2023/12/29 11:25:15;;;;;;;7.93;1.85;;;10.10;99.90;;;;;;4993845;28;20021;-71
2023/12/29 11:27:42;;;;;;;4.07;1.17;;;10.00;99.90;;;;;;5044906;28;20053;-71
2023/12/29 11:30:11;;;;;;;5.07;1.50;;;10.00;99.90;;;;;;5026631;28;20025;-71
2023/12/29 11:32:47;;;;;;;6.80;2.33;;;10.00;99.90;;;;;;5043282;28;20017;-72
2023/12/29 11:35:28;;;;;;;1.65;1.50;;;9.90;99.90;;;;;;5009451;28;20047;-71
2023/12/29 11:38:08;;;;;;;3.58;1.08;;;9.90;99.90;;;;;;5027068;28;20029;-71
2023/12/29 11:40:46;;;;;;;4.90;1.42;;;9.90;99.90;;;;;;5044071;28;20028;-71
2023/12/29 11:43:17;;;;;;;2.13;1.90;;;9.80;99.90;;;;;;5043556;28;20045;-73
2023/12/29 11:45:44;;;;;;;2.58;0.90;;;9.80;99.90;;;;;;5042486;28;20109;-71
2023/12/29 11:48:11;;;;;;;4.97;1.83;;;9.70;99.90;;;;;;5044425;28;20273;-71
2023/12/29 11:50:40;;;;;;;1.75;1.65;;;9.80;99.90;;;;;;5043731;28;20027;-72
2023/12/29 11:53:08;;;;;;;5.03;2.60;;;9.80;99.90;;;;;;5044570;28;20302;-71
2023/12/29 11:55:36;;;;;;;4.55;2.95;;;9.80;99.90;;;;;;5035517;28;20284;-71
2023/12/29 11:58:23;;;;;;;3.38;1.90;;;9.90;99.90;;;;;;5007066;28;20053;-71
2023/12/29 12:00:49;;;;;;;4.53;3.15;;;9.90;99.90;;;;;;5007408;28;20286;-71
2023/12/29 12:03:16;;;;;;;9.82;4.18;;;9.90;99.90;;;;;;5024583;28;20048;-71
2023/12/29 12:05:47;;;;;;;8.55;2.53;;;10.00;99.90;;;;;;5038478;28;20048;-71
2023/12/29 12:08:30;;;;;;;3.13;2.60;;;10.00;99.90;;;;;;5010267;28;20029;-71
2023/12/29 12:11:18;;;;;;;3.60;3.28;;;10.00;99.90;;;;;;5026786;28;20022;-70
2023/12/29 12:13:45;;;;;;;7.30;2.78;;;10.00;99.90;;;;;;5043110;28;20041;-71
2023/12/29 12:16:50;;;;;;;6.47;2.17;;;10.10;99.90;;;;;;5042804;28;20013;-71
2023/12/29 12:19:18;;;;;;;12.65;3.17;;;10.10;99.90;;;;;;5026436;28;20025;-72
2023/12/29 12:21:49;;;;;;;10.82;7.50;;;10.10;99.90;;;;;;5026144;28;20203;-71
2023/12/29 12:24:19;;;;;;;11.18;3.30;;;10.20;99.90;;;;;;5036773;28;20026;-72
2023/12/29 12:26:45;;;;;;;19.27;13.30;;;10.20;99.90;;;;;;5022704;28;20030;-72
2023/12/29 12:29:14;;;;;;;15.82;10.38;;;10.20;99.90;;;;;;5008760;28;20290;-71
2023/12/29 12:31:53;;;;;;;16.10;10.57;;;10.20;99.90;;;;;;5025125;28;20035;-72
2023/12/29 12:34:20;;;;;;;5.28;2.60;;;10.40;99.90;;;;;;5041454;28;20056;-71
2023/12/29 12:36:52;;;;;;;24.95;13.85;;;10.30;99.90;;;;;;5026295;28;20060;-71
2023/12/29 12:39:18;;;;;;;13.82;6.30;;;10.50;99.90;;;;;;5042283;28;20220;-71
2023/12/29 12:41:44;;;;;;;65.65;42.47;;;10.40;99.90;;;;;;5026239;28;20022;-72
2023/12/29 12:44:12;;;;;;;18.52;13.82;;;10.40;99.90;;;;;;5037767;28;20052;-71
2023/12/29 12:47:02;;;;;;;18.08;9.73;;;10.40;99.90;;;;;;5043713;28;20047;-71
2023/12/29 12:49:29;;;;;;;5.00;1.93;;;10.50;99.90;;;;;;5025736;28;20345;-71
2023/12/29 12:51:56;;;;;;;8.52;3.05;;;10.50;99.90;;;;;;5042115;28;20290;-71